createdAt,value
2022-12-08T00:01:24.051Z,95521.91
2022-12-08T00:03:51.518Z,95511.97
2022-12-08T00:07:13.051Z,95516.91
2022-12-08T00:09:41.796Z,95520.56
2022-12-08T00:12:13.128Z,95517.00
2022-12-08T00:14:45.606Z,95526.09
2022-12-08T00:17:14.395Z,95519.06
2022-12-08T00:19:41.775Z,95519.97
2022-12-08T00:22:10.243Z,95514.06
2022-12-08T00:24:39.914Z,95530.50
2022-12-08T00:27:12.553Z,95497.38
2022-12-08T00:29:39.451Z,95511.84
2022-12-08T00:32:07.103Z,95507.44
2022-12-08T00:34:34.317Z,95515.16
2022-12-08T00:37:01.169Z,95512.81
2022-12-08T00:39:28.323Z,95491.22
2022-12-08T00:42:13.260Z,95496.00
2022-12-08T00:44:41.494Z,95491.47
2022-12-08T00:47:08.249Z,95501.53
2022-12-08T00:49:34.927Z,95512.31
2022-12-08T00:52:02.012Z,95496.38
2022-12-08T00:54:28.851Z,95503.34
2022-12-08T00:56:55.538Z,95502.00
2022-12-08T00:59:22.276Z,95495.50
2022-12-08T01:01:49.038Z,95498.69
2022-12-08T01:04:18.488Z,95483.34
2022-12-08T01:06:45.574Z,95490.22
2022-12-08T01:09:14.117Z,95506.81
2022-12-08T01:11:40.898Z,95489.84
2022-12-08T01:14:07.684Z,95483.81
2022-12-08T01:16:36.233Z,95519.56
2022-12-08T01:19:03.726Z,95508.88
2022-12-08T01:21:30.441Z,95502.97
2022-12-08T01:24:00.358Z,95490.22
2022-12-08T01:26:27.076Z,95485.94
2022-12-08T01:28:53.986Z,95480.66
2022-12-08T01:31:22.334Z,95496.13
2022-12-08T01:33:49.723Z,95505.34
2022-12-08T01:36:25.652Z,95507.41
2022-12-08T01:38:54.004Z,95511.56
2022-12-08T01:41:27.082Z,95492.66
2022-12-08T01:44:10.921Z,95487.28
2022-12-08T01:46:42.968Z,95490.09
2022-12-08T01:49:15.927Z,95488.63
2022-12-08T01:51:48.980Z,95465.75
2022-12-08T01:54:16.395Z,95476.97
2022-12-08T01:56:52.897Z,95491.19
2022-12-08T01:59:20.032Z,95479.06
2022-12-08T02:01:51.062Z,95474.38
2022-12-08T02:04:18.168Z,95465.16
2022-12-08T02:06:48.495Z,95480.41
2022-12-08T02:09:15.483Z,95449.34
2022-12-08T02:11:42.183Z,95459.78
2022-12-08T02:14:11.777Z,95454.72
2022-12-08T02:16:59.657Z,95455.09
2022-12-08T02:19:45.137Z,95455.22
2022-12-08T02:22:23.593Z,95429.44
2022-12-08T02:25:01.628Z,95430.31
2022-12-08T02:27:32.904Z,95428.34
2022-12-08T02:30:05.792Z,95449.34
2022-12-08T02:33:09.346Z,95444.28
2022-12-08T02:35:53.565Z,95447.75
2022-12-08T02:39:00.767Z,95430.06
2022-12-08T02:41:30.340Z,95439.16
2022-12-08T02:44:27.055Z,95431.53
2022-12-08T02:47:06.400Z,95422.44
2022-12-08T02:49:34.467Z,95423.66
2022-12-08T02:52:24.900Z,95389.03
2022-12-08T02:55:06.478Z,95427.13
2022-12-08T02:57:48.991Z,95423.91
2022-12-08T03:00:24.553Z,95412.88
2022-12-08T03:03:15.407Z,95419.25
2022-12-08T03:06:18.286Z,95424.88
2022-12-08T03:09:03.302Z,95421.81
2022-12-08T03:11:53.191Z,95418.50
2022-12-08T03:14:22.653Z,95422.88
2022-12-08T03:16:55.249Z,95414.91
2022-12-08T03:19:28.215Z,95432.94
2022-12-08T03:22:03.555Z,95418.72
2022-12-08T03:24:37.393Z,95404.97
2022-12-08T03:27:08.738Z,95397.22
2022-12-08T03:29:35.831Z,95405.44
2022-12-08T03:32:23.831Z,95410.63
2022-12-08T03:34:51.927Z,95386.31
2022-12-08T03:37:18.910Z,95391.69
2022-12-08T03:39:45.623Z,95374.91
2022-12-08T03:42:12.386Z,95394.03
2022-12-08T03:44:39.077Z,95396.13
2022-12-08T03:47:05.905Z,95400.16
2022-12-08T03:49:32.595Z,95399.06
2022-12-08T03:51:59.313Z,95391.03
2022-12-08T03:54:26.022Z,95353.84
2022-12-08T03:56:52.967Z,95395.84
2022-12-08T03:59:19.951Z,95404.44
2022-12-08T04:01:46.759Z,95401.88
2022-12-08T04:04:13.530Z,95387.66
2022-12-08T04:06:40.230Z,95384.31
2022-12-08T04:09:06.958Z,95379.28
2022-12-08T04:11:33.661Z,95394.25
2022-12-08T04:14:00.325Z,95384.78
2022-12-08T04:16:28.092Z,95385.50
2022-12-08T04:18:55.252Z,95386.97
2022-12-08T04:21:22.333Z,95385.63
2022-12-08T04:23:49.266Z,95356.88
2022-12-08T04:26:17.039Z,95390.75
2022-12-08T04:28:44.496Z,95386.59
2022-12-08T04:31:11.470Z,95380.69
2022-12-08T04:33:38.332Z,95369.03
2022-12-08T04:36:06.625Z,95360.34
2022-12-08T04:38:33.933Z,95371.16
2022-12-08T04:41:01.073Z,95351.16
2022-12-08T04:43:27.802Z,95373.25
2022-12-08T04:45:54.716Z,95363.66
2022-12-08T04:48:21.472Z,95371.31
2022-12-08T04:50:48.230Z,95345.66
2022-12-08T04:53:15.030Z,95368.84
2022-12-08T04:55:45.585Z,95361.38
2022-12-08T04:58:14.266Z,95369.94
2022-12-08T05:00:41.957Z,95372.50
2022-12-08T05:03:09.203Z,95361.34
2022-12-08T05:05:36.045Z,95394.31
2022-12-08T05:08:02.994Z,95361.72
2022-12-08T05:10:29.778Z,95360.84
2022-12-08T05:12:58.906Z,95369.84
2022-12-08T05:15:25.846Z,95350.53
2022-12-08T05:17:52.513Z,95355.72
2022-12-08T05:20:19.258Z,95371.66
2022-12-08T05:22:45.939Z,95368.50
2022-12-08T05:25:12.683Z,95352.00
2022-12-08T05:27:39.393Z,95382.06
2022-12-08T05:30:06.984Z,95352.41
2022-12-08T05:32:33.932Z,95347.50
2022-12-08T05:35:00.595Z,95341.88
2022-12-08T05:37:27.283Z,95342.59
2022-12-08T05:39:53.975Z,95344.69
2022-12-08T05:42:24.784Z,95371.72
2022-12-08T05:44:52.532Z,95355.22
2022-12-08T05:47:19.387Z,95326.06
2022-12-08T05:49:46.182Z,95321.59
2022-12-08T05:52:12.860Z,95331.31
2022-12-08T05:54:39.574Z,95366.88
2022-12-08T05:57:06.674Z,95340.41
2022-12-08T05:59:33.393Z,95340.28
2022-12-08T06:02:00.223Z,95348.50
2022-12-08T06:04:27.077Z,95364.22
2022-12-08T06:06:53.808Z,95360.38
2022-12-08T06:09:20.544Z,95343.81
2022-12-08T06:11:47.576Z,95334.78
2022-12-08T06:14:14.404Z,95337.59
2022-12-08T06:16:41.158Z,95341.13
2022-12-08T06:19:07.881Z,95323.81
2022-12-08T06:21:34.706Z,95336.19
2022-12-08T06:24:01.454Z,95348.09
2022-12-08T06:26:28.920Z,95356.31
2022-12-08T06:28:55.580Z,95355.91
2022-12-08T06:31:26.911Z,95367.44
2022-12-08T06:33:55.123Z,95353.09
2022-12-08T06:36:25.315Z,95349.31
2022-12-08T06:38:52.464Z,95339.13
2022-12-08T06:41:19.210Z,95343.28
2022-12-08T06:43:46.140Z,95360.56
2022-12-08T06:46:16.381Z,95348.81
2022-12-08T06:48:43.407Z,95336.56
2022-12-08T06:51:15.534Z,95328.63
2022-12-08T06:53:43.988Z,95330.03
2022-12-08T06:56:12.388Z,95337.94
2022-12-08T06:58:39.505Z,95359.00
2022-12-08T07:01:11.766Z,95353.34
2022-12-08T07:03:39.539Z,95338.16
2022-12-08T07:06:07.019Z,95328.84
2022-12-08T07:08:34.729Z,95337.53
2022-12-08T07:11:08.274Z,95346.00
2022-12-08T07:13:35.003Z,95348.72
2022-12-08T07:16:04.511Z,95354.09
2022-12-08T07:18:31.168Z,95347.59
2022-12-08T07:21:03.613Z,95348.34
2022-12-08T07:23:30.234Z,95341.69
2022-12-08T07:26:00.672Z,95353.63
2022-12-08T07:28:27.295Z,95351.69
2022-12-08T07:30:53.886Z,95333.50
2022-12-08T07:33:20.577Z,95353.88
2022-12-08T07:35:55.179Z,95354.00
2022-12-08T07:38:21.870Z,95351.19
2022-12-08T07:40:48.526Z,95342.84
2022-12-08T07:43:15.197Z,95350.72
2022-12-08T07:45:42.356Z,95345.41
2022-12-08T07:48:09.127Z,95355.88
2022-12-08T07:50:36.122Z,95346.81
2022-12-08T07:53:02.779Z,95351.97
2022-12-08T07:55:29.384Z,95356.38
2022-12-08T07:57:56.038Z,95359.94
2022-12-08T08:00:22.860Z,95358.00
2022-12-08T08:02:49.684Z,95366.69
2022-12-08T08:05:16.472Z,95351.00
2022-12-08T08:07:43.823Z,95361.31
2022-12-08T08:10:11.411Z,95353.44
2022-12-08T08:12:38.920Z,95353.81
2022-12-08T08:15:08.276Z,95348.34
2022-12-08T08:17:36.669Z,95352.00
2022-12-08T08:20:08.122Z,95349.06
2022-12-08T08:22:36.156Z,95349.66
2022-12-08T08:25:03.051Z,95354.47
2022-12-08T08:27:29.771Z,95353.84
2022-12-08T08:29:56.407Z,95352.88
2022-12-08T08:32:23.039Z,95350.56
2022-12-08T08:34:50.821Z,95353.25
2022-12-08T08:37:17.553Z,95347.13
2022-12-08T08:39:44.316Z,95350.31
2022-12-08T08:42:10.981Z,95350.06
2022-12-08T08:44:39.026Z,95343.94
2022-12-08T08:47:05.967Z,95343.44
2022-12-08T08:49:32.609Z,95340.63
2022-12-08T08:51:59.330Z,95340.25
2022-12-08T08:54:26.023Z,95346.38
2022-12-08T08:56:52.778Z,95354.25
2022-12-08T08:59:19.408Z,95358.91
2022-12-08T09:01:46.185Z,95358.19
2022-12-08T09:04:12.881Z,95348.63
2022-12-08T09:06:39.783Z,95352.28
2022-12-08T09:09:06.493Z,95342.59
2022-12-08T09:11:33.348Z,95347.00
2022-12-08T09:14:00.050Z,95342.00
2022-12-08T09:16:26.749Z,95350.19
2022-12-08T09:18:53.719Z,95351.06
2022-12-08T09:21:23.775Z,95342.13
2022-12-08T09:23:52.559Z,95342.59
2022-12-08T09:26:22.522Z,95340.25
2022-12-08T09:28:50.697Z,95336.09
2022-12-08T09:31:18.848Z,95340.25
2022-12-08T09:33:45.866Z,95335.38
2022-12-08T09:36:12.493Z,95324.69
2022-12-08T09:38:40.098Z,95327.63
2022-12-08T09:41:20.094Z,95329.22
2022-12-08T09:43:54.680Z,95316.97
2022-12-08T09:46:21.639Z,95327.25
2022-12-08T09:49:23.773Z,95318.78
2022-12-08T09:51:50.617Z,95306.03
2022-12-08T09:54:33.769Z,95309.69
2022-12-08T09:57:06.564Z,95309.69
2022-12-08T09:59:36.141Z,95295.72
2022-12-08T10:02:11.607Z,95297.03
2022-12-08T10:04:38.828Z,95284.56
2022-12-08T10:07:26.657Z,95292.25
2022-12-08T10:10:35.268Z,95293.09
2022-12-08T10:13:21.916Z,95284.63
2022-12-08T10:16:16.727Z,95281.09
2022-12-08T10:18:56.800Z,95285.97
2022-12-08T10:21:28.796Z,95289.56
2022-12-08T10:24:03.980Z,95275.56
2022-12-08T10:26:32.792Z,95274.94
2022-12-08T10:29:02.886Z,95277.97
2022-12-08T10:31:31.329Z,95268.31
2022-12-08T10:34:00.748Z,95263.38
2022-12-08T10:36:56.633Z,95267.31
2022-12-08T10:39:30.218Z,95258.81
2022-12-08T10:42:18.419Z,95261.66
2022-12-08T10:44:53.225Z,95254.00
2022-12-08T10:47:22.217Z,95251.31
2022-12-08T10:50:12.910Z,95260.63
2022-12-08T10:52:40.864Z,95248.09
2022-12-08T10:55:18.708Z,95239.00
2022-12-08T10:57:45.532Z,95225.78
2022-12-08T11:00:14.884Z,95234.69
2022-12-08T11:02:57.273Z,95231.28
2022-12-08T11:05:29.533Z,95227.69
2022-12-08T11:07:56.753Z,95230.28
2022-12-08T11:10:42.610Z,95223.53
2022-12-08T11:13:26.761Z,95230.63
2022-12-08T11:15:57.473Z,95228.78
2022-12-08T11:18:28.201Z,95217.59
2022-12-08T11:21:01.533Z,95214.28
2022-12-08T11:23:30.049Z,95212.19
2022-12-08T11:26:03.664Z,95212.28
2022-12-08T11:28:30.599Z,95204.44
2022-12-08T11:31:03.908Z,95203.94
2022-12-08T11:33:30.556Z,95201.84
2022-12-08T11:36:00.241Z,95201.31
2022-12-08T11:38:28.403Z,95192.75
2022-12-08T11:41:14.214Z,95200.28
2022-12-08T11:44:20.633Z,95184.19
2022-12-08T11:46:53.397Z,95173.19
2022-12-08T11:49:20.760Z,95180.13
2022-12-08T11:52:00.028Z,95181.59
2022-12-08T11:54:29.558Z,95175.19
2022-12-08T11:57:02.067Z,95185.28
2022-12-08T11:59:44.355Z,95187.47
2022-12-08T12:02:18.446Z,95179.00
2022-12-08T12:04:55.808Z,95172.72
2022-12-08T12:07:52.188Z,95171.38
2022-12-08T12:10:30.853Z,95175.88
2022-12-08T12:13:22.867Z,95163.50
2022-12-08T12:16:10.758Z,95173.16
2022-12-08T12:19:00.287Z,95163.94
2022-12-08T12:21:51.811Z,95167.50
2022-12-08T12:24:27.476Z,95164.03
2022-12-08T12:27:00.495Z,95167.63
2022-12-08T12:29:33.540Z,95156.41
2022-12-08T12:32:07.154Z,95150.75
2022-12-08T12:34:37.347Z,95150.53
2022-12-08T12:37:16.348Z,95166.47
2022-12-08T12:39:51.999Z,95157.34
2022-12-08T12:42:55.075Z,95158.09
2022-12-08T12:45:21.737Z,95151.09
2022-12-08T12:47:55.596Z,95155.47
2022-12-08T12:50:34.949Z,95145.00
2022-12-08T12:53:05.939Z,95151.41
2022-12-08T12:55:53.115Z,95147.97
2022-12-08T12:58:30.169Z,95136.00
2022-12-08T13:01:12.088Z,95143.97
2022-12-08T13:03:43.544Z,95141.88
2022-12-08T13:06:15.172Z,95134.03
2022-12-08T13:08:55.234Z,95132.34
2022-12-08T13:11:23.361Z,95151.00
2022-12-08T13:13:57.054Z,95141.78
2022-12-08T13:16:26.212Z,95141.78
2022-12-08T13:18:57.697Z,95135.50
2022-12-08T13:21:31.905Z,95136.22
2022-12-08T13:24:10.599Z,95129.84
2022-12-08T13:27:06.444Z,95124.81
2022-12-08T13:29:34.581Z,95122.63
2022-12-08T13:32:02.981Z,95124.50
2022-12-08T13:34:46.771Z,95116.88
2022-12-08T13:37:13.824Z,95123.13
2022-12-08T13:39:40.527Z,95125.84
2022-12-08T13:42:12.281Z,95115.91
2022-12-08T13:45:21.503Z,95115.91
2022-12-08T13:48:21.520Z,95118.63
2022-12-08T13:57:03.992Z,95115.81
2022-12-08T13:59:34.611Z,95108.25
2022-12-08T14:02:10.722Z,95116.41
2022-12-08T14:05:09.468Z,95116.63
2022-12-08T14:07:24.630Z,95117.25
2022-12-08T14:09:52.826Z,95117.06
2022-12-08T14:12:25.621Z,95128.56
2022-12-08T14:15:03.358Z,95132.22
2022-12-08T14:17:30.614Z,95133.69
2022-12-08T14:20:12.378Z,95132.47
2022-12-08T14:22:40.916Z,95129.00
2022-12-08T14:25:13.531Z,95129.00
2022-12-08T14:27:40.329Z,95135.50
2022-12-08T14:30:29.087Z,95133.41
2022-12-08T14:32:58.957Z,95113.78
2022-12-08T14:35:28.179Z,95126.28
2022-12-08T14:38:01.032Z,95126.91
2022-12-08T14:40:41.630Z,95123.25
2022-12-08T14:43:08.254Z,95114.66
2022-12-08T14:46:02.533Z,95111.72
2022-12-08T14:48:33.655Z,95122.16
2022-12-08T14:51:03.516Z,95115.06
2022-12-08T14:53:44.077Z,95114.94
2022-12-08T14:56:27.239Z,95121.97
2022-12-08T14:59:15.475Z,95114.00
2022-12-08T15:01:43.914Z,95112.56
2022-12-08T15:04:13.521Z,95115.38
2022-12-08T15:07:05.450Z,95116.00
2022-12-08T15:09:35.204Z,95110.97
2022-12-08T15:12:26.366Z,95115.88
2022-12-08T15:15:13.838Z,95112.94
2022-12-08T15:17:40.415Z,95115.66
2022-12-08T15:20:27.571Z,95116.31
2022-12-08T15:22:58.597Z,95121.09
2022-12-08T15:25:25.396Z,95115.25
2022-12-08T15:27:57.248Z,95119.44
2022-12-08T15:30:26.504Z,95120.69
2022-12-08T15:32:54.333Z,95115.63
2022-12-08T15:35:21.379Z,95111.66
2022-12-08T15:37:48.059Z,95125.25
2022-12-08T15:40:19.879Z,95126.63
2022-12-08T15:42:46.596Z,95129.34
2022-12-08T15:45:14.664Z,95120.03
2022-12-08T15:47:42.587Z,95124.09
2022-12-08T15:50:17.903Z,95134.78
2022-12-08T15:52:44.825Z,95131.84
2022-12-08T15:55:15.820Z,95131.22
2022-12-08T16:00:52.959Z,95127.25
2022-12-08T16:04:02.701Z,95123.06
2022-12-08T16:07:12.331Z,95122.44
2022-12-08T16:09:13.106Z,95120.97
2022-12-08T16:12:08.977Z,95120.97
2022-12-08T16:17:24.503Z,95113.25
2022-12-08T16:19:51.181Z,95119.50
2022-12-08T16:25:23.344Z,95112.91
2022-12-08T16:28:03.106Z,95115.63
2022-12-08T16:30:36.005Z,95115.53
2022-12-08T16:33:02.831Z,95109.13
2022-12-08T16:35:31.013Z,95107.66
2022-12-08T16:37:57.985Z,95108.91
2022-12-08T16:40:25.186Z,95103.16
2022-12-08T16:42:51.914Z,95099.47
2022-12-08T16:45:25.120Z,95100.09
2022-12-08T16:47:54.319Z,95098.53
2022-12-08T16:50:33.246Z,95109.59
2022-12-08T16:53:11.322Z,95106.56
2022-12-08T16:55:38.556Z,95087.59
2022-12-08T16:58:06.077Z,95093.69
2022-12-08T17:00:37.375Z,95102.78
2022-12-08T17:03:05.824Z,95097.75
2022-12-08T17:05:32.496Z,95101.31
2022-12-08T17:07:59.402Z,95091.16
2022-12-08T17:10:29.499Z,95087.25
2022-12-08T17:12:56.775Z,95088.59
2022-12-08T17:15:25.673Z,95094.63
2022-12-08T17:17:53.095Z,95102.22
2022-12-08T17:20:23.118Z,95100.88
2022-12-08T17:22:50.146Z,95101.63
2022-12-08T17:25:16.967Z,95100.25
2022-12-08T17:27:43.600Z,95086.00
2022-12-08T17:30:15.570Z,95087.50
2022-12-08T17:32:43.262Z,95078.66
2022-12-08T17:35:10.615Z,95079.53
2022-12-08T17:37:37.406Z,95072.75
2022-12-08T17:40:04.974Z,95080.50
2022-12-08T17:42:31.840Z,95077.53
2022-12-08T17:44:58.481Z,95074.09
2022-12-08T17:47:25.153Z,95074.84
2022-12-08T17:49:51.978Z,95078.28
2022-12-08T17:52:18.675Z,95071.22
2022-12-08T17:54:45.325Z,95075.75
2022-12-08T17:57:12.083Z,95083.25
2022-12-08T17:59:38.790Z,95077.06
2022-12-08T18:02:05.656Z,95080.88
2022-12-08T18:04:32.375Z,95084.09
2022-12-08T18:07:01.329Z,95080.53
2022-12-08T18:09:31.086Z,95083.13
2022-12-08T18:11:57.916Z,95073.84
2022-12-08T18:14:24.736Z,95092.34
2022-12-08T18:16:51.459Z,95076.03
2022-12-08T18:19:18.227Z,95070.56
2022-12-08T18:21:44.991Z,95079.41
2022-12-08T18:24:22.213Z,95086.66
2022-12-08T18:26:52.202Z,95072.63
2022-12-08T18:29:20.354Z,95064.16
2022-12-08T18:31:47.741Z,95070.41
2022-12-08T18:34:14.637Z,95071.25
2022-12-08T18:36:41.432Z,95075.22
2022-12-08T18:39:20.609Z,95070.06
2022-12-08T18:41:47.283Z,95061.25
2022-12-08T18:44:13.949Z,95065.19
2022-12-08T18:46:40.646Z,95060.03
2022-12-08T18:49:11.202Z,95059.09
2022-12-08T18:51:38.243Z,95069.50
2022-12-08T18:54:04.972Z,95058.84
2022-12-08T18:56:33.712Z,95065.22
2022-12-08T18:59:07.253Z,95052.75
2022-12-08T19:01:36.116Z,95051.13
2022-12-08T19:06:54.023Z,95067.44
2022-12-08T19:09:22.680Z,95072.97
2022-12-08T19:11:49.470Z,95067.84
2022-12-08T19:14:16.303Z,95080.34
2022-12-08T19:16:42.961Z,95070.91
2022-12-08T19:19:09.767Z,95066.59
2022-12-08T19:21:42.869Z,95068.81
2022-12-08T19:24:12.791Z,95056.09
2022-12-08T19:26:39.557Z,95069.91
2022-12-08T19:29:06.262Z,95071.38
2022-12-08T19:31:33.082Z,95070.06
2022-12-08T19:33:59.730Z,95078.97
2022-12-08T19:36:27.673Z,95071.53
2022-12-08T19:39:12.844Z,95066.88
2022-12-08T19:42:18.049Z,95076.16
2022-12-08T19:44:53.869Z,95071.88
2022-12-08T19:47:27.340Z,95054.38
2022-12-08T19:50:15.672Z,95063.06
2022-12-08T19:52:43.471Z,95072.50
2022-12-08T19:55:10.469Z,95060.75
2022-12-08T19:57:37.510Z,95062.56
2022-12-08T20:00:06.111Z,95026.47
2022-12-08T20:02:37.528Z,95048.25
2022-12-08T20:05:08.472Z,95061.09
2022-12-08T20:07:35.713Z,95066.84
2022-12-08T20:10:18.421Z,95073.94
2022-12-08T20:12:45.413Z,95051.31
2022-12-08T20:15:12.247Z,95072.09
2022-12-08T20:17:39.248Z,95052.53
2022-12-08T20:20:07.893Z,95032.06
2022-12-08T20:22:35.258Z,95036.34
2022-12-08T20:25:02.859Z,95042.59
2022-12-08T20:27:29.670Z,95049.31
2022-12-08T20:29:56.406Z,95051.22
2022-12-08T20:32:23.175Z,95054.16
2022-12-08T20:34:49.924Z,95041.94
2022-12-08T20:37:16.785Z,95044.25
2022-12-08T20:39:43.587Z,95047.06
2022-12-08T20:42:13.809Z,95054.41
2022-12-08T20:44:44.522Z,95053.22
2022-12-08T20:47:12.545Z,95054.56
2022-12-08T20:49:39.372Z,95049.41
2022-12-08T20:52:06.400Z,95050.25
2022-12-08T20:54:34.633Z,95056.59
2022-12-08T20:57:01.701Z,95050.13
2022-12-08T20:59:28.661Z,95046.44
2022-12-08T21:01:55.889Z,95040.94
2022-12-08T21:04:23.406Z,95047.91
2022-12-08T21:06:50.692Z,95053.28
2022-12-08T21:09:17.666Z,95043.38
2022-12-08T21:11:45.090Z,95034.06
2022-12-08T21:14:13.430Z,95036.75
2022-12-08T21:16:40.262Z,95030.88
2022-12-08T21:19:07.251Z,95029.41
2022-12-08T21:21:34.185Z,95025.13
2022-12-08T21:24:01.437Z,95027.81
2022-12-08T21:26:28.834Z,95020.44
2022-12-08T21:28:59.089Z,95015.81
2022-12-08T21:31:27.103Z,95020.84
2022-12-08T21:33:55.320Z,95024.47
2022-12-08T21:36:22.918Z,95023.97
2022-12-08T21:38:50.337Z,94976.88
2022-12-08T21:41:49.439Z,95012.75
2022-12-08T21:44:20.181Z,95012.03
2022-12-08T21:46:46.986Z,94992.88
2022-12-08T21:49:13.877Z,95051.50
2022-12-08T21:51:42.373Z,95022.50
2022-12-08T21:54:18.038Z,95052.59
2022-12-08T21:56:46.588Z,95051.66
2022-12-08T21:59:13.491Z,95057.00
2022-12-08T22:01:40.460Z,95024.72
2022-12-08T22:04:07.587Z,95033.88
2022-12-08T22:06:34.696Z,95028.19
2022-12-08T22:09:02.696Z,95022.56
2022-12-08T22:11:29.960Z,95037.97
2022-12-08T22:13:56.751Z,95026.66
2022-12-08T22:16:23.895Z,95045.91
2022-12-08T22:18:50.995Z,95029.84
2022-12-08T22:21:18.374Z,95045.78
2022-12-08T22:23:45.661Z,95038.69
2022-12-08T22:26:13.539Z,95020.19
2022-12-08T22:28:42.475Z,95027.94
2022-12-08T22:31:11.446Z,95024.03
2022-12-08T22:33:39.432Z,95026.09
2022-12-08T22:36:10.872Z,95011.53
2022-12-08T22:38:38.070Z,95026.59
2022-12-08T22:41:05.689Z,95018.97
2022-12-08T22:43:33.483Z,95008.03
2022-12-08T22:46:00.690Z,95016.81
2022-12-08T22:48:28.050Z,94966.38
2022-12-08T22:50:59.825Z,95073.41
2022-12-08T22:53:26.878Z,95001.19
2022-12-08T22:55:54.311Z,94990.06
2022-12-08T22:58:21.824Z,94989.44
2022-12-08T23:00:48.698Z,94993.00
2022-12-08T23:03:15.671Z,95013.31
2022-12-08T23:05:42.558Z,94995.06
2022-12-08T23:08:13.941Z,95021.63
2022-12-08T23:10:41.122Z,95018.97
2022-12-08T23:13:08.794Z,95004.88
2022-12-08T23:15:35.738Z,94982.50
2022-12-08T23:18:02.870Z,94981.75
2022-12-08T23:20:29.767Z,94997.22
2022-12-08T23:22:56.800Z,94991.16
2022-12-08T23:25:23.469Z,94999.84
2022-12-08T23:27:50.315Z,95018.69
2022-12-08T23:30:17.365Z,94995.06
2022-12-08T23:32:44.561Z,94996.06
2022-12-08T23:35:11.805Z,94975.75
2022-12-08T23:37:38.781Z,94958.91
2022-12-08T23:40:06.941Z,94979.69
2022-12-08T23:42:33.961Z,94989.81
2022-12-08T23:45:00.922Z,94955.91
2022-12-08T23:47:30.982Z,94954.66
2022-12-08T23:49:57.829Z,94962.94
2022-12-08T23:52:24.846Z,94947.97
2022-12-08T23:54:52.751Z,94957.84
2022-12-08T23:57:19.725Z,94963.94
2022-12-08T23:59:46.420Z,94968.69
